LSZF weather

Birrfeld Airport
Canton of Aargau, Switzerland

Public forecast

Using degrees Celsius for public forecast. Weather courtesy of forecast.io.

METAR (pilot weather report)

Closest report is Zürich Airport, 12.9 nm (23.8 km) E. Retrieved 2019/06/16 22:20 UTC (39 minutes ago):

LSZH 162220Z 33006KT CAVOK 13/12 Q1022 NOSIG

TAF (pilot weather forecast)

Closest forecast is Zürich Airport, 12.9 nm (23.8 km) E. Retrieved 2019/06/16 21:37 UTC (1 hour ago):

TAF LSZH 162025Z 1621/1803 VRB03KT CAVOK TX26/1715Z TN12/1704Z BECMG 1701/1704 4000 BR BKN008 BECMG 1707/1710 05008KT 9999 SCT020 BECMG 1716/1719 CAVOK